Home > Products > Valid Products > MTR

000
SAUS45 KLKN 301854
MTRP68
METAR KP68 301853Z AUTO VRB04KT 33/05 A3020 RMK AO1 SLP122 T03280050
$





000
SAUS45 KLKN 301755
MTRP68
METAR KP68 301753Z AUTO 01005KT 32/07 A3022 RMK AO1 SLP129 T03170067
10317 20167 58006 $





000
SAUS45 KLKN 301755
MTRP68
METAR KP68 301753Z AUTO 01005KT 32/07 A3022 RMK AO1 SLP129 T03170067
10317 20167 58006 $





000
SAUS45 KLKN 301655
MTRP68
METAR KP68 301653Z AUTO 35006KT 31/06 A3023 RMK AO1 SLP131 T03060061
$





000
SAUS45 KLKN 301554
MTRP68
METAR KP68 301553Z AUTO 01006KT 28/07 A3024 RMK AO1 SLP136 T02780072
$





000
SAUS45 KLKN 301554
MTRP68
METAR KP68 301553Z AUTO 01006KT 28/07 A3024 RMK AO1 SLP136 T02780072
$





000
SAUS45 KLKN 301454
MTRP68
METAR KP68 301453Z AUTO 05003KT 26/07 A3024 RMK AO1 SLP139 T02560072
51002 $





000
SAUS45 KLKN 301454
MTRP68
METAR KP68 301453Z AUTO 05003KT 26/07 A3024 RMK AO1 SLP139 T02560072
51002 $





000
SAUS45 KLKN 301354
MTRP68
METAR KP68 301353Z AUTO 19005KT 21/08 A3024 RMK AO1 SLP140 T02110083
$





000
SAUS45 KLKN 301255
MTRP68
METAR KP68 301253Z AUTO 19008KT 17/08 A3024 RMK AO1 SLP141 T01720078
$





000
SAUS45 KLKN 301255
MTRP68
METAR KP68 301253Z AUTO 19008KT 17/08 A3024 RMK AO1 SLP141 T01720078
$





000
SAUS45 KLKN 301154
MTRP68
METAR KP68 301153Z AUTO 19007KT 18/07 A3023 RMK AO1 SLP136 T01780072
10250 20167 53001 $





000
SAUS45 KLKN 301154
MTRP68
METAR KP68 301153Z AUTO 19007KT 18/07 A3023 RMK AO1 SLP136 T01780072
10250 20167 53001 $





000
SAUS45 KLKN 301054
MTRP68
METAR KP68 301053Z AUTO 20006KT 19/07 A3023 RMK AO1 SLP136 T01890072
$





000
SAUS45 KLKN 301054
MTRP68
METAR KP68 301053Z AUTO 20006KT 19/07 A3023 RMK AO1 SLP136 T01890072
$





000
SAUS45 KLKN 300954
MTRP68
METAR KP68 300953Z AUTO 17006KT 21/07 A3024 RMK AO1 SLP131 T02110072
$





000
SAUS45 KLKN 300854
MTRP68
METAR KP68 300853Z AUTO 24009KT 21/08 A3023 RMK AO1 SLP134 T02060078
55001 $





000
SAUS45 KLKN 300854
MTRP68
METAR KP68 300853Z AUTO 24009KT 21/08 A3023 RMK AO1 SLP134 T02060078
55001 $





000
SAUS45 KLKN 300755
MTRP68
METAR KP68 300753Z AUTO 20010KT 21/09 A3022 RMK AO1 SLP131 T02060094
403720178 $





000
SAUS45 KLKN 300655
MTRP68
METAR KP68 300653Z AUTO 12005KT 23/09 A3023 RMK AO1 SLP131 T02330094
$





000
SAUS45 KLKN 300555
MTRP68
METAR KP68 300553Z AUTO 10005KT 24/08 A3023 RMK AO1 SLP134 T02440083
10361 20244 51017 $





000
SAUS45 KLKN 300555
MTRP68
METAR KP68 300553Z AUTO 10005KT 24/08 A3023 RMK AO1 SLP134 T02440083
10361 20244 51017 $





000
SAUS45 KLKN 300455
MTRP68
METAR KP68 300453Z AUTO 06009KT 26/08 A3022 RMK AO1 SLP129 T02560078
$





000
SAUS45 KLKN 300455
MTRP68
METAR KP68 300453Z AUTO 06009KT 26/08 A3022 RMK AO1 SLP129 T02560078
$





000
SAUS45 KLKN 300354
MTRP68
METAR KP68 300353Z AUTO 35009KT 27/07 A3020 RMK AO1 SLP120 T02720072
$





000
SAUS45 KLKN 300354
MTRP68
METAR KP68 300353Z AUTO 35009KT 27/07 A3020 RMK AO1 SLP120 T02720072
$





000
SAUS45 KLKN 300254
MTRP68
METAR KP68 300253Z AUTO 27008G15KT 29/06 A3017 RMK AO1 SLP115
T02890061 53018 $





000
SAUS45 KLKN 300254
MTRP68
METAR KP68 300253Z AUTO 27008G15KT 29/06 A3017 RMK AO1 SLP115
T02890061 53018 $





000
SAUS45 KLKN 300154
MTRP68
METAR KP68 300153Z AUTO 27012KT 32/03 A3014 RMK AO1 SLP101 T03220033
$





000
SAUS45 KLKN 300055
MTRP68
METAR KP68 300053Z AUTO 26015KT 34/03 A3012 RMK AO1 SLP098 T03440033
$





000
SAUS45 KLKN 300055
MTRP68
METAR KP68 300053Z AUTO 26015KT 34/03 A3012 RMK AO1 SLP098 T03440033
$





000
SAUS45 KLKN 292354
MTRP68
METAR KP68 292353Z AUTO 26015G26KT 36/02 A3011 RMK AO1 PK WND
28026/2348 SLP091 T03610022 10372 20322 56015 $





000
SAUS45 KLKN 292255
MTRP68
METAR KP68 292253Z AUTO 27013KT 34/02 A3013 RMK AO1 SLP097 T03440017
$





000
SAUS45 KLKN 292155
MTRP68
METAR KP68 292153Z AUTO 24008G28KT 37/00 A3014 RMK AO1 PK WND
24028/2150 SLP096 T03720000 $





000
SAUS45 KLKN 292155
MTRP68
METAR KP68 292153Z AUTO 24008G28KT 37/00 A3014 RMK AO1 PK WND
24028/2150 SLP096 T03720000 $





000
SAUS45 KLKN 292054
MTRP68
METAR KP68 292053Z AUTO 32004KT 35/02 A3016 RMK AO1 SLP107 T03500022
58013 $





000
SAUS45 KLKN 291957 COR
MTRP68
METAR KP68 291953Z AUTO 26008KT 34/02 A3019 RMK AO1 SLP113 T03440022
$





000
SAUS45 KLKN 291855
MTRP68
METAR KP68 291853Z AUTO 03005KT 33/03 A3020 RMK AO1 SLP120 T03330033
$





000
SAUS45 KLKN 291754
MTRP68
METAR KP68 291753Z AUTO 00000KT 32/03 A3021 RMK AO1 SLP122 T03220033
10322 20178 58011 $





000
SAUS45 KLKN 291754
MTRP68
METAR KP68 291753Z AUTO 00000KT 32/03 A3021 RMK AO1 SLP122 T03220033
10322 20178 58011 $





000
SAUS45 KLKN 291655
MTRP68
METAR KP68 291653Z AUTO VRB03KT 31/03 A3023 RMK AO1 SLP129 T03060033
$





000
SAUS45 KLKN 291655
MTRP68
METAR KP68 291653Z AUTO VRB03KT 31/03 A3023 RMK AO1 SLP129 T03060033
$





000
SAUS45 KLKN 291554
MTRP68
METAR KP68 291553Z AUTO VRB03KT 29/04 A3024 RMK AO1 SLP131 T02890039
$





000
SAUS45 KLKN 291455
MTRP68
METAR KP68 291453Z AUTO 00000KT 25/06 A3025 RMK AO1 SLP137 T02500061
51012 $





000
SAUS45 KLKN 291355
MTRP68
METAR KP68 291353Z AUTO 00000KT 22/05 A3024 RMK AO1 SLP137 T02220050
$





000
SAUS45 KLKN 291254
MTRP68
METAR KP68 291253Z AUTO 00000KT 19/03 A3023 RMK AO1 SLP136 T01890033
$





000
SAUS45 KLKN 291254
MTRP68
METAR KP68 291253Z AUTO 00000KT 19/03 A3023 RMK AO1 SLP136 T01890033
$





000
SAUS45 KLKN 291154
MTRP68
METAR KP68 291153Z AUTO 20009KT 21/02 A3021 RMK AO1 SLP124 T02060022
10267 20194 53005 $





000
SAUS45 KLKN 291154
MTRP68
METAR KP68 291153Z AUTO 20009KT 21/02 A3021 RMK AO1 SLP124 T02060022
10267 20194 53005 $





000
SAUS45 KLKN 291054
MTRP68
METAR KP68 291053Z AUTO 18007KT 22/02 A3020 RMK AO1 SLP118 T02220022
$





000
SAUS45 KLKN 291054
MTRP68
METAR KP68 291053Z AUTO 18007KT 22/02 A3020 RMK AO1 SLP118 T02220022
$





000
SAUS45 KLKN 290954
MTRP68
METAR KP68 290953Z AUTO 22006KT 23/03 A3019 RMK AO1 SLP114 T02280028
$





000
SAUS45 KLKN 290855
MTRP68
METAR KP68 290853Z AUTO 24008KT 23/03 A3019 RMK AO1 SLP114 T02280028
53008 $





000
SAUS45 KLKN 290755
MTRP68
METAR KP68 290753Z AUTO 21004KT 25/02 A3017 RMK AO1 SLP108 T02500017
403830200 $





000
SAUS45 KLKN 290755
MTRP68
METAR KP68 290753Z AUTO 21004KT 25/02 A3017 RMK AO1 SLP108 T02500017
403830200 $





000
SAUS45 KLKN 290654
MTRP68
METAR KP68 290653Z AUTO 11004KT 24/02 A3016 RMK AO1 SLP105 T02440022
$





000
SAUS45 KLKN 290654
MTRP68
METAR KP68 290653Z AUTO 11004KT 24/02 A3016 RMK AO1 SLP105 T02440022
$





000
SAUS45 KLKN 290555
MTRP68
METAR KP68 290553Z AUTO 22006KT 27/01 A3016 RMK AO1 SLP102 T02670011
10367 20261 50013 $





000
SAUS45 KLKN 290555
MTRP68
METAR KP68 290553Z AUTO 22006KT 27/01 A3016 RMK AO1 SLP102 T02670011
10367 20261 50013 $





000
SAUS45 KLKN 290454
MTRP68
METAR KP68 290453Z AUTO 13006KT 27/02 A3016 RMK AO1 SLP105 T02720022
$





000
SAUS45 KLKN 290355
MTRP68
METAR KP68 290353Z AUTO 26008KT 31/00 A3013 RMK AO1 SLP093 T03110000
$





000
SAUS45 KLKN 290355
MTRP68
METAR KP68 290353Z AUTO 26008KT 31/00 A3013 RMK AO1 SLP093 T03110000
$





000
SAUS45 KLKN 290255
MTRP68
METAR KP68 290253Z AUTO 26003KT 32/M01 A3012 RMK AO1 SLP088
T03221011 53009 $





000
SAUS45 KLKN 290255
MTRP68
METAR KP68 290253Z AUTO 26003KT 32/M01 A3012 RMK AO1 SLP088
T03221011 53009 $





000
SAUS45 KLKN 290154
MTRP68
METAR KP68 290153Z AUTO VRB04KT 33/01 A3011 RMK AO1 SLP084 T03280006
$





000
SAUS45 KLKN 290054
MTRP68
METAR KP68 290053Z AUTO 02006KT 35/M02 A3008 RMK AO1 SLP080
T03501017 $





000
SAUS45 KLKN 290054
MTRP68
METAR KP68 290053Z AUTO 02006KT 35/M02 A3008 RMK AO1 SLP080
T03501017 $





000
SAUS45 KLKN 282355
MTRP68
METAR KP68 282353Z AUTO VRB03KT 36/M02 A3008 RMK AO1 SLP081
T03561022 10383 20333 56018 $





000
SAUS45 KLKN 282355
MTRP68
METAR KP68 282353Z AUTO VRB03KT 36/M02 A3008 RMK AO1 SLP081
T03561022 10383 20333 56018 $





000
SAUS45 KLKN 282254
MTRP68
METAR KP68 282253Z AUTO 09014G18KT 36/M01 A3011 RMK AO1 SLP085
T03611011 $





000
SAUS45 KLKN 282155
MTRP68
METAR KP68 282153Z AUTO 28004KT 37/M03 A3012 RMK AO1 SLP090
T03721033 $





000
SAUS45 KLKN 282155
MTRP68
METAR KP68 282153Z AUTO 28004KT 37/M03 A3012 RMK AO1 SLP090
T03721033 $





000
SAUS45 KLKN 282055
MTRP68
METAR KP68 282053Z AUTO VRB04KT 36/M02 A3015 RMK AO1 PK WND
16026/2031 SLP101 T03561022 58014 $





000
SAUS45 KLKN 281954
MTRP68
METAR KP68 281953Z AUTO 14010G17KT 35/M02 A3017 RMK AO1 SLP107
T03501017 $





000
SAUS45 KLKN 281854
MTRP68
METAR KP68 281853Z AUTO 15007KT 36/M01 A3018 RMK AO1 SLP114
T03561011 $





000
SAUS45 KLKN 281755
MTRP68
METAR KP68 281753Z AUTO 34005KT 34/M01 A3019 RMK AO1 SLP119
T03441011 10344 20200 58002 $





000
SAUS45 KLKN 281654
MTRP68
METAR KP68 281653Z AUTO VRB03KT 33/M01 A3020 RMK AO1 SLP119
T03281011 $





000
SAUS45 KLKN 281555
MTRP68
METAR KP68 281553Z AUTO 23003KT 30/M01 A3021 RMK AO1 SLP123
T03001006 $





000
SAUS45 KLKN 281455
MTRP68
METAR KP68 281453Z AUTO 22005KT 27/02 A3020 RMK AO1 SLP120 T02720017
53008 $





000
SAUS45 KLKN 281355
MTRP68
METAR KP68 281353Z AUTO VRB04KT 28/01 A3019 RMK AO1 SLP110 T02780006
$





000
SAUS45 KLKN 281255
MTRP68
METAR KP68 281253Z AUTO 18007KT 22/M01 A3018 RMK AO1 SLP115
T02171006 $





000
SAUS45 KLKN 281155
MTRP68
METAR KP68 281153Z AUTO 20006KT 21/01 A3017 RMK AO1 SLP112 T02060006
10250 20206 53004 $





000
SAUS45 KLKN 281054
MTRP68
METAR KP68 281053Z AUTO 19003KT 22/01 A3016 RMK AO1 SLP103 T02220006
$





000
SAUS45 KLKN 281054
MTRP68
METAR KP68 281053Z AUTO 19003KT 22/01 A3016 RMK AO1 SLP103 T02220006
$





000
SAUS45 KLKN 280954
MTRP68
METAR KP68 280953Z AUTO 29003KT 22/00 A3016 RMK AO1 SLP104 T02220000
$





000
SAUS45 KLKN 280954
MTRP68
METAR KP68 280953Z AUTO 29003KT 22/00 A3016 RMK AO1 SLP104 T02220000
$





000
SAUS45 KLKN 280854
MTRP68
METAR KP68 280853Z AUTO 00000KT 22/02 A3016 RMK AO1 SLP106 T02220022
58003 $





000
SAUS45 KLKN 280755
MTRP68
METAR KP68 280753Z AUTO 18006KT 23/M01 A3017 RMK AO1 SLP108
T02331006 403830139 $





000
SAUS45 KLKN 280755
MTRP68
METAR KP68 280753Z AUTO 18006KT 23/M01 A3017 RMK AO1 SLP108
T02331006 403830139 $





000
SAUS45 KLKN 280654
MTRP68
METAR KP68 280653Z AUTO 19004KT 22/01 A3017 RMK AO1 SLP110 T02220006
$





000
SAUS45 KLKN 280654
MTRP68
METAR KP68 280653Z AUTO 19004KT 22/01 A3017 RMK AO1 SLP110 T02220006
$





000
SAUS45 KLKN 280555
MTRP68
METAR KP68 280553Z AUTO 15007KT 22/01 A3017 RMK AO1 SLP114 T02220011
10361 20217 51006 $





000
SAUS45 KLKN 280555
MTRP68
METAR KP68 280553Z AUTO 15007KT 22/01 A3017 RMK AO1 SLP114 T02220011
10361 20217 51006 $





000
SAUS45 KLKN 280454
MTRP68
METAR KP68 280453Z AUTO 16007KT 26/02 A3017 RMK AO1 SLP110 T02560017
$





000
SAUS45 KLKN 280354
MTRP68
METAR KP68 280353Z AUTO 17006KT 29/01 A3016 RMK AO1 SLP106 T02890006
$





000
SAUS45 KLKN 280255
MTRP68
METAR KP68 280253Z AUTO 36008KT 31/02 A3015 RMK AO1 SLP106 T03060017
53000 $





000
SAUS45 KLKN 280155
MTRP68
METAR KP68 280153Z AUTO 05011KT 34/M01 A3015 RMK AO1 SLP105
T03391006 $





000
SAUS45 KLKN 280055
MTRP68
METAR KP68 280053Z AUTO 03012KT 35/M03 A3014 RMK AO1 SLP111
T03501028 $





000
SAUS45 KLKN 280055
MTRP68
METAR KP68 280053Z AUTO 03012KT 35/M03 A3014 RMK AO1 SLP111
T03501028 $





000
SAUS45 KLKN 272355
MTRP68
METAR KP68 272353Z AUTO 04018G25KT 36/M02 A3015 RMK AO1 PK WND
06034/2328 WSHFT 2327 SLP112 T03611022 10383 20317 56012 $





000
SAUS45 KLKN 272346
MTRP68
SPECI KP68 272344Z AUTO 04010G22KT 36/M03 A3015 RMK AO1 PK WND
06034/2328 WSHFT 2327 T03561028 $





000
SAUS45 KLKN 272254
MTRP68
METAR KP68 272253Z AUTO 21011G23KT 37/M03 A3015 RMK AO1 WSHFT 2150
SLP109 T03721033 $





000
SAUS45 KLKN 272208
MTRP68
SPECI KP68 272207Z AUTO 26018G24KT 38/M02 A3017 RMK AO1 WSHFT 2150
T03831022 $





000
SAUS45 KLKN 272154
MTRP68
METAR KP68 272153Z AUTO 22012G22KT 37/M03 A3018 RMK AO1 SLP116
T03721033 $





000
SAUS45 KLKN 272054
MTRP68
METAR KP68 272053Z AUTO 00000KT 36/M04 A3019 RMK AO1 SLP122
T03561039 58018 $





000
SAUS45 KLKN 271955
MTRP68
METAR KP68 271953Z AUTO VRB06KT 36/M03 A3021 RMK AO1 SLP130
T03561033 $





    US Dept of Commerce
    National Oceanic and Atmospheric Administration
    National Weather Service
    1325 East West Highway
    Silver Spring, MD 20910
    Page Author: NWS Internet Services Team
Disclaimer
Information Quality
Credits
Glossary
Privacy Policy
Freedom of Information Act (FOIA)
About Us
Career Opportunities